createdAt,value
2018-11-13T00:00:08.246Z,43.78
2018-11-13T00:02:36.724Z,43.33
2018-11-13T00:05:05.584Z,40.85
2018-11-13T00:07:33.927Z,49.75
2018-11-13T00:10:02.245Z,44.38
2018-11-13T00:12:30.563Z,48.83
2018-11-13T00:14:58.981Z,44.40
2018-11-13T00:17:27.300Z,48.50
2018-11-13T00:19:55.627Z,41.05
2018-11-13T00:22:23.945Z,42.45
2018-11-13T00:24:52.288Z,46.73
2018-11-13T00:27:21.366Z,50.75
2018-11-13T00:29:49.758Z,43.58
2018-11-13T00:32:18.262Z,42.17
2018-11-13T00:34:46.606Z,42.50
2018-11-13T00:37:15.200Z,44.18
2018-11-13T00:39:43.663Z,43.23
2018-11-13T00:42:12.034Z,48.52
2018-11-13T00:44:40.463Z,46.90
2018-11-13T00:47:08.805Z,47.38
2018-11-13T00:49:37.125Z,49.03
2018-11-13T00:52:06.045Z,46.88
2018-11-13T00:54:34.419Z,47.93
2018-11-13T00:57:02.781Z,46.90
2018-11-13T00:59:31.395Z,46.33
2018-11-13T01:01:59.588Z,47.10
2018-11-13T01:04:27.929Z,44.98
2018-11-13T01:06:56.235Z,47.53
2018-11-13T01:09:24.629Z,49.40
2018-11-13T01:11:53.185Z,50.35
2018-11-13T01:14:22.548Z,47.13
2018-11-13T01:16:50.987Z,47.58
2018-11-13T01:19:19.386Z,47.70
2018-11-13T01:21:47.759Z,45.20
2018-11-13T01:24:16.260Z,46.83
2018-11-13T01:26:44.574Z,46.90
2018-11-13T01:29:12.880Z,52.60
2018-11-13T01:31:41.263Z,48.08
2018-11-13T01:34:10.597Z,44.55
2018-11-13T01:36:38.905Z,51.48
2018-11-13T01:39:08.845Z,51.53
2018-11-13T01:41:37.166Z,49.38
2018-11-13T01:44:05.889Z,50.35
2018-11-13T01:46:34.227Z,52.23
2018-11-13T01:49:02.745Z,50.55
2018-11-13T01:51:31.404Z,53.45
2018-11-13T01:53:59.815Z,51.23
2018-11-13T01:56:28.369Z,46.73
2018-11-13T01:58:56.887Z,52.30
2018-11-13T02:01:25.263Z,45.17
2018-11-13T02:03:53.629Z,50.60
2018-11-13T02:06:21.996Z,50.48
2018-11-13T02:08:50.415Z,47.53
2018-11-13T02:11:18.735Z,52.35
2018-11-13T02:13:52.852Z,46.50
2018-11-13T02:16:21.572Z,46.83
2018-11-13T02:18:49.916Z,42.93
2018-11-13T02:21:18.296Z,44.35
2018-11-13T02:23:46.670Z,46.20
2018-11-13T02:26:14.992Z,47.48
2018-11-13T02:28:43.387Z,49.25
2018-11-13T02:31:11.747Z,48.00
2018-11-13T02:33:40.153Z,49.60
2018-11-13T02:36:08.641Z,47.08
2018-11-13T02:38:37.370Z,49.70
2018-11-13T02:41:05.863Z,50.63
2018-11-13T02:43:34.660Z,44.70
2018-11-13T02:46:03.242Z,50.05
2018-11-13T02:48:32.740Z,47.17
2018-11-13T02:51:02.066Z,47.08
2018-11-13T02:53:30.983Z,46.83
2018-11-13T02:55:59.480Z,47.03
2018-11-13T02:58:27.840Z,47.40
2018-11-13T03:00:56.191Z,45.25
2018-11-13T03:03:24.511Z,46.00
2018-11-13T03:05:52.788Z,44.18
2018-11-13T03:08:21.864Z,45.60
2018-11-13T03:10:50.505Z,45.90
2018-11-13T03:13:18.866Z,42.23
2018-11-13T03:15:47.205Z,43.45
2018-11-13T03:18:15.646Z,48.30
2018-11-13T03:20:44.014Z,45.90
2018-11-13T03:23:12.388Z,45.88
2018-11-13T03:25:40.903Z,44.45
2018-11-13T03:28:09.264Z,40.55
2018-11-13T03:30:37.663Z,38.98
2018-11-13T03:33:05.961Z,39.65
2018-11-13T03:35:34.243Z,37.90
2018-11-13T03:38:02.940Z,40.88
2018-11-13T03:40:31.286Z,40.73
2018-11-13T03:42:59.710Z,42.03
2018-11-13T03:45:28.040Z,39.40
2018-11-13T03:47:56.439Z,43.70
2018-11-13T03:50:24.900Z,38.92
2018-11-13T03:52:53.315Z,40.03
2018-11-13T03:55:21.700Z,40.25
2018-11-13T03:57:50.492Z,47.13
2018-11-13T04:00:22.862Z,35.55
2018-11-13T04:02:51.306Z,43.95
2018-11-13T04:05:20.671Z,37.33
2018-11-13T04:07:53.360Z,38.88
2018-11-13T04:10:22.307Z,42.45
2018-11-13T04:12:50.738Z,44.55
2018-11-13T04:15:23.483Z,36.70
2018-11-13T04:17:51.973Z,38.73
2018-11-13T04:20:21.409Z,37.50
2018-11-13T04:22:50.092Z,38.95
2018-11-13T04:25:18.444Z,40.48
2018-11-13T04:27:46.823Z,32.48
2018-11-13T04:30:16.310Z,31.73
2018-11-13T04:32:44.918Z,28.87
2018-11-13T04:35:14.535Z,32.28
2018-11-13T04:37:42.934Z,30.97
2018-11-13T04:40:15.327Z,30.65
2018-11-13T04:42:44.978Z,28.85
2018-11-13T04:45:14.668Z,31.95
2018-11-13T04:47:43.975Z,30.95
2018-11-13T04:50:13.772Z,36.75
2018-11-13T04:52:42.586Z,28.47
2018-11-13T04:55:11.374Z,29.90
2018-11-13T04:57:40.748Z,30.88
2018-11-13T05:00:11.784Z,30.32
2018-11-13T05:02:40.838Z,32.70
2018-11-13T05:05:10.090Z,35.10
2018-11-13T05:07:38.449Z,30.80
2018-11-13T05:10:08.454Z,34.20
2018-11-13T05:12:37.207Z,34.78
2018-11-13T05:15:05.869Z,34.27
2018-11-13T05:17:34.235Z,33.83
2018-11-13T05:20:02.761Z,29.55
2018-11-13T05:22:31.427Z,35.85
2018-11-13T05:24:59.856Z,36.90
2018-11-13T05:27:28.456Z,36.28
2018-11-13T05:29:56.912Z,42.78
2018-11-13T05:32:25.199Z,31.40
2018-11-13T05:34:53.571Z,31.75
2018-11-13T05:37:21.908Z,36.13
2018-11-13T05:39:50.593Z,32.10
2018-11-13T05:42:19.213Z,28.85
2018-11-13T05:44:47.550Z,33.15
2018-11-13T05:47:15.961Z,31.60
2018-11-13T05:49:44.331Z,37.03
2018-11-13T05:52:12.683Z,34.58
2018-11-13T05:54:41.123Z,32.93
2018-11-13T05:57:09.502Z,29.18
2018-11-13T05:59:38.100Z,28.17
2018-11-13T06:02:06.973Z,28.30
2018-11-13T06:04:35.446Z,31.70
2018-11-13T06:07:03.884Z,32.28
2018-11-13T06:12:24.236Z,32.42
2018-11-13T06:14:52.602Z,28.23
2018-11-13T06:17:21.043Z,29.42
2018-11-13T06:19:49.710Z,23.25
2018-11-13T06:22:18.092Z,22.85
2018-11-13T06:24:46.414Z,27.15
2018-11-13T06:27:15.733Z,23.10
2018-11-13T06:29:44.367Z,21.80
2018-11-13T06:32:12.914Z,22.00
2018-11-13T06:34:42.153Z,25.57
2018-11-13T06:37:12.124Z,19.42
2018-11-13T06:39:40.839Z,22.50
2018-11-13T06:42:10.221Z,20.57
2018-11-13T06:44:38.679Z,20.50
2018-11-13T06:47:07.050Z,19.25
2018-11-13T06:49:35.429Z,20.37
2018-11-13T06:52:03.811Z,18.50
2018-11-13T06:55:20.454Z,20.10
2018-11-13T06:57:49.664Z,16.62
2018-11-13T07:00:18.394Z,21.20
2018-11-13T07:02:46.807Z,18.52
2018-11-13T07:05:16.377Z,16.95
2018-11-13T07:07:45.248Z,15.40
2018-11-13T07:10:22.464Z,16.20
2018-11-13T07:12:51.636Z,19.48
2018-11-13T07:15:21.406Z,16.67
2018-11-13T07:17:52.357Z,15.32
2018-11-13T07:20:22.121Z,16.82
2018-11-13T07:22:50.939Z,13.13
2018-11-13T07:25:19.484Z,11.48
2018-11-13T07:27:48.197Z,14.03
2018-11-13T07:30:17.704Z,10.13
2018-11-13T07:32:46.421Z,9.75
2018-11-13T07:35:15.874Z,10.60
2018-11-13T07:37:48.881Z,15.28
2018-11-13T07:40:17.343Z,9.90
2018-11-13T07:42:45.625Z,10.50
2018-11-13T07:45:14.725Z,12.47
2018-11-13T07:47:43.994Z,7.85
2018-11-13T07:50:12.828Z,7.78
2018-11-13T07:52:41.188Z,12.28
2018-11-13T07:55:10.655Z,6.78
2018-11-13T07:57:38.994Z,9.23
2018-11-13T08:00:23.472Z,9.70
2018-11-13T08:02:53.200Z,10.63
2018-11-13T08:05:21.707Z,11.05
2018-11-13T08:07:50.008Z,8.75
2018-11-13T08:10:18.404Z,10.00
2018-11-13T08:12:47.120Z,17.30
2018-11-13T08:15:16.711Z,19.05
2018-11-13T08:17:45.027Z,8.13
2018-11-13T08:20:14.576Z,8.28
2018-11-13T08:22:43.491Z,7.62
2018-11-13T08:25:12.062Z,8.38
2018-11-13T08:27:41.052Z,9.73
2018-11-13T08:30:11.355Z,7.53
2018-11-13T08:32:39.649Z,8.25
2018-11-13T08:35:11.593Z,7.08
2018-11-13T08:37:40.018Z,9.20
2018-11-13T08:40:11.567Z,9.15
2018-11-13T08:42:40.079Z,7.67
2018-11-13T08:45:09.247Z,7.55
2018-11-13T08:47:37.620Z,9.13
2018-11-13T08:50:06.171Z,8.58
2018-11-13T08:52:34.445Z,8.13
2018-11-13T08:55:02.790Z,10.23
2018-11-13T08:57:31.115Z,10.43
2018-11-13T08:59:59.406Z,9.78
2018-11-13T09:02:27.697Z,8.68
2018-11-13T09:04:56.092Z,8.28
2018-11-13T09:07:24.459Z,11.22
2018-11-13T09:09:52.695Z,11.60
2018-11-13T09:12:21.110Z,11.97
2018-11-13T09:14:49.285Z,9.40
2018-11-13T09:17:17.513Z,13.25
2018-11-13T09:19:45.932Z,13.53
2018-11-13T09:22:14.164Z,8.73
2018-11-13T09:24:43.040Z,8.40
2018-11-13T09:27:11.679Z,10.20
2018-11-13T09:29:40.018Z,9.68
2018-11-13T09:32:08.285Z,6.65
2018-11-13T09:34:36.605Z,6.40
2018-11-13T09:37:05.180Z,8.85
2018-11-13T09:39:33.590Z,7.70
2018-11-13T09:42:02.563Z,9.53
2018-11-13T09:44:31.151Z,11.05
2018-11-13T09:46:59.427Z,10.75
2018-11-13T09:49:27.737Z,8.95
2018-11-13T09:51:56.032Z,9.60
2018-11-13T09:54:24.384Z,7.12
2018-11-13T09:56:52.698Z,9.93
2018-11-13T09:59:20.964Z,11.53
2018-11-13T10:01:49.809Z,7.90
2018-11-13T10:04:18.474Z,10.50
2018-11-13T10:06:46.192Z,8.70
2018-11-13T10:09:14.492Z,8.15
2018-11-13T10:11:43.823Z,7.22
2018-11-13T10:14:12.399Z,14.20
2018-11-13T10:16:41.945Z,12.47
2018-11-13T10:19:11.203Z,6.25
2018-11-13T10:21:39.481Z,8.48
2018-11-13T10:24:08.764Z,11.48
2018-11-13T10:26:37.090Z,9.43
2018-11-13T10:29:05.468Z,7.65
2018-11-13T10:31:33.731Z,8.28
2018-11-13T10:34:02.049Z,11.33
2018-11-13T10:36:30.336Z,9.03
2018-11-13T10:38:58.644Z,8.53
2018-11-13T10:41:33.780Z,9.60
2018-11-13T10:44:02.003Z,7.58
2018-11-13T10:46:30.340Z,6.05
2018-11-13T10:48:58.801Z,10.98
2018-11-13T10:51:27.171Z,6.53
2018-11-13T10:53:55.606Z,7.85
2018-11-13T10:56:24.324Z,10.72
2018-11-13T10:58:52.992Z,9.98
2018-11-13T11:01:26.683Z,9.20
2018-11-13T11:04:01.094Z,12.23
2018-11-13T11:06:31.351Z,7.47
2018-11-13T11:08:59.900Z,7.17
2018-11-13T11:11:28.299Z,9.65
2018-11-13T11:13:57.048Z,11.33
2018-11-13T11:16:25.184Z,6.05
2018-11-13T11:18:53.549Z,8.60
2018-11-13T11:21:21.781Z,11.90
2018-11-13T11:23:50.101Z,8.05
2018-11-13T11:26:18.368Z,6.55
2018-11-13T11:28:46.734Z,6.17
2018-11-13T11:31:15.048Z,8.10
2018-11-13T11:33:43.329Z,8.93
2018-11-13T11:36:11.699Z,9.55
2018-11-13T11:41:18.209Z,8.23
2018-11-13T11:43:46.886Z,11.70
2018-11-13T11:46:15.519Z,16.25
2018-11-13T11:48:44.053Z,15.15
2018-11-13T11:51:12.579Z,13.25
2018-11-13T11:53:41.232Z,9.78
2018-11-13T11:56:09.956Z,10.90
2018-11-13T11:58:38.638Z,15.18
2018-11-13T12:01:07.376Z,10.30
2018-11-13T12:03:36.428Z,9.23
2018-11-13T12:06:05.323Z,9.18
2018-11-13T12:08:33.931Z,8.55
2018-11-13T12:11:02.473Z,7.55
2018-11-13T12:13:31.062Z,16.20
2018-11-13T12:15:59.580Z,9.88
2018-11-13T12:18:28.137Z,14.68
2018-11-13T12:20:56.670Z,11.28
2018-11-13T12:23:25.218Z,8.05
2018-11-13T12:25:53.913Z,10.25
2018-11-13T12:28:22.397Z,7.40
2018-11-13T12:30:50.949Z,10.50
2018-11-13T12:33:19.478Z,11.70
2018-11-13T12:35:48.256Z,14.80
2018-11-13T12:38:16.983Z,10.53
2018-11-13T12:40:52.330Z,8.60
2018-11-13T12:43:20.848Z,9.58
2018-11-13T12:45:50.168Z,11.00
2018-11-13T12:48:18.779Z,9.73
2018-11-13T12:50:52.776Z,11.18
2018-11-13T12:53:21.332Z,3.58
2018-11-13T12:55:50.075Z,9.58
2018-11-13T12:58:18.714Z,6.72
2018-11-13T13:00:47.465Z,8.23
2018-11-13T13:03:16.089Z,10.00
2018-11-13T13:05:44.813Z,4.85
2018-11-13T13:08:13.423Z,8.35
2018-11-13T13:10:41.984Z,9.28
2018-11-13T13:13:11.863Z,6.05
2018-11-13T13:15:40.417Z,5.87
2018-11-13T13:18:08.979Z,6.62
2018-11-13T13:20:37.535Z,8.28
2018-11-13T13:23:06.085Z,10.20
2018-11-13T13:25:35.789Z,9.88
2018-11-13T13:28:04.372Z,7.15
2018-11-13T13:30:32.910Z,8.95
2018-11-13T13:33:01.530Z,7.85
2018-11-13T13:35:47.263Z,9.35
2018-11-13T13:38:15.794Z,14.98
2018-11-13T13:40:45.304Z,7.70
2018-11-13T13:43:14.569Z,5.55
2018-11-13T13:45:43.851Z,5.95
2018-11-13T13:48:12.373Z,9.43
2018-11-13T13:50:40.927Z,5.75
2018-11-13T13:53:10.542Z,9.23
2018-11-13T13:55:39.166Z,7.78
2018-11-13T13:58:07.729Z,7.42
2018-11-13T14:00:36.335Z,7.67
2018-11-13T14:03:06.043Z,9.65
2018-11-13T14:05:35.016Z,5.53
2018-11-13T14:08:03.719Z,6.90
2018-11-13T14:10:32.454Z,5.45
2018-11-13T14:13:01.147Z,6.83
2018-11-13T14:15:29.967Z,7.90
2018-11-13T14:17:58.738Z,7.87
2018-11-13T14:20:27.473Z,4.87
2018-11-13T14:22:56.103Z,8.23
2018-11-13T14:25:24.692Z,5.25
2018-11-13T14:27:53.278Z,9.10
2018-11-13T14:30:38.963Z,6.58
2018-11-13T14:33:09.863Z,7.22
2018-11-13T14:35:38.554Z,7.50
2018-11-13T14:38:07.239Z,8.28
2018-11-13T14:40:44.014Z,5.40
2018-11-13T14:43:12.814Z,8.58
2018-11-13T14:45:41.539Z,7.35
2018-11-13T14:48:10.799Z,16.50
2018-11-13T14:50:40.198Z,6.22
2018-11-13T14:53:09.654Z,4.42
2018-11-13T14:55:40.002Z,12.43
2018-11-13T14:58:10.003Z,5.53
2018-11-13T15:00:39.115Z,7.92
2018-11-13T15:03:09.053Z,8.68
2018-11-13T15:05:37.759Z,3.33
2018-11-13T15:08:07.383Z,9.30
2018-11-13T15:10:42.154Z,8.53
2018-11-13T15:13:11.149Z,10.28
2018-11-13T15:15:39.654Z,4.03
2018-11-13T15:18:08.559Z,7.87
2018-11-13T15:20:37.281Z,4.58
2018-11-13T15:23:07.106Z,5.80
2018-11-13T15:25:35.674Z,6.47
2018-11-13T15:28:04.191Z,8.13
2018-11-13T15:30:33.942Z,3.33
2018-11-13T15:33:12.695Z,4.47
2018-11-13T15:35:41.193Z,6.20
2018-11-13T15:38:09.870Z,8.00
2018-11-13T15:40:38.471Z,6.75
2018-11-13T15:43:07.086Z,7.75
2018-11-13T15:45:35.654Z,6.37
2018-11-13T15:48:05.551Z,10.85
2018-11-13T15:50:34.982Z,9.23
2018-11-13T15:53:03.574Z,4.72
2018-11-13T15:55:32.133Z,6.92
2018-11-13T15:58:01.121Z,13.25
2018-11-13T16:00:31.377Z,13.20
2018-11-13T16:03:01.347Z,12.05
2018-11-13T16:05:33.174Z,7.22
2018-11-13T16:08:02.734Z,7.55
2018-11-13T16:10:31.665Z,11.10
2018-11-13T16:13:01.161Z,6.78
2018-11-13T16:15:30.580Z,4.05
2018-11-13T16:18:00.519Z,14.43
2018-11-13T16:20:29.280Z,7.28
2018-11-13T16:22:58.733Z,5.47
2018-11-13T16:25:27.683Z,7.20
2018-11-13T16:27:56.557Z,8.80
2018-11-13T16:30:29.931Z,12.00
2018-11-13T16:32:58.562Z,8.93
2018-11-13T16:35:28.046Z,12.18
2018-11-13T16:37:57.951Z,4.45
2018-11-13T16:40:28.667Z,7.40
2018-11-13T16:42:57.473Z,5.80
2018-11-13T16:45:26.995Z,8.20
2018-11-13T16:47:56.927Z,9.05
2018-11-13T16:50:27.984Z,9.38
2018-11-13T16:52:57.220Z,9.53
2018-11-13T16:55:31.127Z,5.60
2018-11-13T16:58:00.868Z,8.38
2018-11-13T17:00:30.252Z,13.65
2018-11-13T17:02:58.853Z,10.18
2018-11-13T17:05:28.386Z,7.70
2018-11-13T17:07:56.873Z,7.03
2018-11-13T17:10:27.832Z,11.45
2018-11-13T17:12:56.851Z,5.12
2018-11-13T17:15:26.656Z,6.17
2018-11-13T17:17:56.257Z,12.15
2018-11-13T17:20:24.906Z,7.45
2018-11-13T17:22:53.765Z,9.25
2018-11-13T17:25:23.841Z,11.15
2018-11-13T17:27:53.420Z,12.35
2018-11-13T17:30:24.211Z,15.58
2018-11-13T17:32:53.452Z,9.50
2018-11-13T17:35:23.434Z,11.93
2018-11-13T17:37:52.787Z,10.75
2018-11-13T17:40:22.612Z,8.70
2018-11-13T17:42:52.126Z,6.83
2018-11-13T17:45:23.207Z,8.15
2018-11-13T17:47:51.873Z,8.08
2018-11-13T17:50:24.020Z,15.80
2018-11-13T17:52:52.926Z,12.88
2018-11-13T17:55:22.023Z,9.33
2018-11-13T17:57:52.144Z,12.58
2018-11-13T18:00:28.207Z,7.10
2018-11-13T18:02:56.901Z,11.70
2018-11-13T18:05:26.371Z,11.38
2018-11-13T18:07:55.896Z,9.80
2018-11-13T18:10:24.853Z,10.45
2018-11-13T18:12:53.477Z,8.73
2018-11-13T18:15:23.462Z,7.60
2018-11-13T18:17:52.153Z,12.00
2018-11-13T18:20:23.032Z,11.65
2018-11-13T18:22:51.649Z,11.28
2018-11-13T18:25:20.261Z,15.15
2018-11-13T18:27:50.390Z,7.47
2018-11-13T18:30:22.717Z,19.07
2018-11-13T18:32:51.554Z,11.55
2018-11-13T18:35:22.563Z,14.15
2018-11-13T18:37:51.901Z,12.60
2018-11-13T18:40:21.607Z,9.88
2018-11-13T18:42:50.989Z,11.15
2018-11-13T18:45:22.548Z,14.93
2018-11-13T18:47:51.556Z,20.15
2018-11-13T18:50:51.991Z,17.60
2018-11-13T18:53:20.808Z,12.00
2018-11-13T18:55:49.707Z,10.05
2018-11-13T18:58:18.487Z,13.50
2018-11-13T19:00:47.084Z,11.08
2018-11-13T19:03:15.751Z,15.75
2018-11-13T19:05:44.446Z,15.98
2018-11-13T19:08:13.501Z,15.58
2018-11-13T19:10:43.999Z,10.45
2018-11-13T19:13:15.090Z,14.87
2018-11-13T19:15:45.378Z,16.23
2018-11-13T19:18:14.653Z,19.15
2018-11-13T19:20:43.240Z,13.98
2018-11-13T19:23:11.966Z,15.25
2018-11-13T19:25:40.959Z,15.50
2018-11-13T19:28:09.655Z,14.68
2018-11-13T19:30:38.576Z,15.08
2018-11-13T19:33:07.424Z,14.50
2018-11-13T19:35:36.234Z,14.80
2018-11-13T19:38:05.936Z,11.95
2018-11-13T19:40:35.166Z,13.95
2018-11-13T19:43:08.122Z,10.90
2018-11-13T19:45:42.043Z,13.72
2018-11-13T19:48:11.717Z,19.23
2018-11-13T19:50:40.741Z,15.75
2018-11-13T19:53:09.435Z,19.80
2018-11-13T19:55:38.085Z,15.63
2018-11-13T19:58:08.714Z,16.00
2018-11-13T20:00:38.600Z,13.70
2018-11-13T20:03:10.078Z,16.10
2018-11-13T20:05:40.497Z,21.90
2018-11-13T20:08:09.804Z,11.63
2018-11-13T20:10:39.504Z,19.05
2018-11-13T20:13:09.315Z,17.10
2018-11-13T20:15:38.747Z,14.28
2018-11-13T20:18:07.579Z,16.82
2018-11-13T20:20:36.666Z,21.20
2018-11-13T20:23:06.830Z,12.75
2018-11-13T20:25:36.163Z,20.23
2018-11-13T20:28:04.967Z,16.00
2018-11-13T20:30:35.668Z,11.97
2018-11-13T20:33:04.330Z,21.40
2018-11-13T20:35:32.951Z,19.57
2018-11-13T20:38:02.159Z,12.03
2018-11-13T20:40:32.150Z,17.55
2018-11-13T20:43:01.954Z,18.15
2018-11-13T20:45:30.634Z,17.87
2018-11-13T20:47:59.407Z,14.68
2018-11-13T20:50:32.459Z,12.03
2018-11-13T20:53:01.094Z,22.07
2018-11-13T20:55:29.939Z,14.78
2018-11-13T20:57:58.757Z,10.90
2018-11-13T21:00:35.913Z,20.20
2018-11-13T21:03:04.546Z,8.40
2018-11-13T21:05:33.460Z,19.90
2018-11-13T21:08:02.156Z,15.13
2018-11-13T21:10:32.342Z,19.05
2018-11-13T21:13:01.813Z,17.90
2018-11-13T21:15:36.750Z,18.12
2018-11-13T21:18:05.442Z,14.10
2018-11-13T21:20:34.010Z,14.85
2018-11-13T21:23:02.607Z,20.72
2018-11-13T21:25:31.220Z,14.60
2018-11-13T21:28:01.367Z,12.03
2018-11-13T21:30:29.943Z,15.70
2018-11-13T21:32:58.492Z,13.43
2018-11-13T21:35:27.056Z,13.85
2018-11-13T21:37:56.697Z,16.42
2018-11-13T21:40:26.338Z,41.80
2018-11-13T21:42:55.408Z,13.83
2018-11-13T21:45:24.883Z,18.80
2018-11-13T21:47:53.470Z,17.12
2018-11-13T21:50:23.516Z,16.95
2018-11-13T21:52:52.153Z,23.07
2018-11-13T21:55:21.961Z,18.30
2018-11-13T21:57:50.614Z,16.67
2018-11-13T22:00:22.519Z,15.93
2018-11-13T22:02:53.112Z,20.35
2018-11-13T22:05:22.520Z,21.25
2018-11-13T22:07:51.202Z,22.73
2018-11-13T22:10:20.898Z,28.67
2018-11-13T22:12:49.702Z,16.02
2018-11-13T22:15:19.734Z,16.37
2018-11-13T22:17:48.399Z,15.83
2018-11-13T22:20:17.954Z,18.75
2018-11-13T22:22:46.797Z,19.80
2018-11-13T22:25:17.830Z,21.27
2018-11-13T22:27:47.891Z,19.92
2018-11-13T22:30:17.462Z,22.42
2018-11-13T22:32:46.504Z,30.70
2018-11-13T22:35:15.698Z,21.75
2018-11-13T22:37:44.289Z,18.92
2018-11-13T22:40:15.003Z,22.30
2018-11-13T22:42:44.671Z,17.62
2018-11-13T22:45:15.080Z,19.98
2018-11-13T22:47:43.648Z,26.97
2018-11-13T22:50:33.512Z,16.70
2018-11-13T22:53:02.157Z,16.82
2018-11-13T22:55:30.846Z,18.62
2018-11-13T22:58:00.592Z,15.75
2018-11-13T23:00:43.633Z,17.07
2018-11-13T23:03:13.522Z,25.68
2018-11-13T23:05:42.661Z,16.95
2018-11-13T23:08:12.349Z,21.55
2018-11-13T23:10:40.865Z,22.05
2018-11-13T23:13:09.436Z,17.77
2018-11-13T23:15:37.978Z,22.87
2018-11-13T23:18:06.833Z,29.12
2018-11-13T23:20:35.586Z,20.62
2018-11-13T23:23:04.228Z,19.52
2018-11-13T23:25:32.973Z,21.55
2018-11-13T23:28:02.430Z,19.10
2018-11-13T23:30:30.965Z,58.58
2018-11-13T23:33:00.055Z,23.95
2018-11-13T23:35:28.684Z,23.27
2018-11-13T23:37:58.411Z,24.70
2018-11-13T23:40:27.905Z,19.87
2018-11-13T23:42:56.542Z,23.47
2018-11-13T23:45:25.973Z,28.45
2018-11-13T23:47:55.060Z,19.07
2018-11-13T23:50:23.745Z,26.37
2018-11-13T23:52:52.646Z,18.23
2018-11-13T23:55:21.176Z,20.10
2018-11-13T23:57:49.802Z,25.62
